sensor_id;sensor_type;location;lat;lon;timestamp;P1;durP1;ratioP1;P2;durP2;ratioP2
18200;SDS011;9226;47.858;9.594;2022-07-05T00:01:08;4.30;;;1.50;;
18200;SDS011;9226;47.858;9.594;2022-07-05T00:06:13;2.37;;;1.50;;
18200;SDS011;9226;47.858;9.594;2022-07-05T00:16:32;3.23;;;1.80;;
18200;SDS011;9226;47.858;9.594;2022-07-05T00:21:46;4.57;;;1.63;;
18200;SDS011;9226;47.858;9.594;2022-07-05T00:32:06;2.80;;;1.80;;
18200;SDS011;9226;47.858;9.594;2022-07-05T00:37:21;3.80;;;1.77;;
18200;SDS011;9226;47.858;9.594;2022-07-05T00:47:40;3.50;;;2.10;;
18200;SDS011;9226;47.858;9.594;2022-07-05T00:52:45;6.00;;;2.30;;
18200;SDS011;9226;47.858;9.594;2022-07-05T00:57:59;4.80;;;2.70;;
18200;SDS011;9226;47.858;9.594;2022-07-05T01:08:24;3.67;;;2.20;;
18200;SDS011;9226;47.858;9.594;2022-07-05T01:13:30;4.20;;;2.20;;
18200;SDS011;9226;47.858;9.594;2022-07-05T01:18:44;4.90;;;2.30;;
18200;SDS011;9226;47.858;9.594;2022-07-05T01:29:04;4.33;;;2.40;;
18200;SDS011;9226;47.858;9.594;2022-07-05T01:34:19;4.17;;;2.60;;
18200;SDS011;9226;47.858;9.594;2022-07-05T01:39:25;4.53;;;2.73;;
18200;SDS011;9226;47.858;9.594;2022-07-05T01:44:30;3.83;;;2.37;;
18200;SDS011;9226;47.858;9.594;2022-07-05T01:54:49;4.93;;;2.50;;
18200;SDS011;9226;47.858;9.594;2022-07-05T01:59:54;3.13;;;2.20;;
18200;SDS011;9226;47.858;9.594;2022-07-05T02:05:00;8.37;;;2.30;;
18200;SDS011;9226;47.858;9.594;2022-07-05T02:10:14;4.63;;;2.53;;
18200;SDS011;9226;47.858;9.594;2022-07-05T02:15:19;6.70;;;3.30;;
18200;SDS011;9226;47.858;9.594;2022-07-05T02:20:26;4.40;;;2.90;;
18200;SDS011;9226;47.858;9.594;2022-07-05T02:25:40;6.00;;;3.40;;
18200;SDS011;9226;47.858;9.594;2022-07-05T02:30:47;8.50;;;3.70;;
18200;SDS011;9226;47.858;9.594;2022-07-05T02:41:08;11.33;;;3.77;;
18200;SDS011;9226;47.858;9.594;2022-07-05T02:46:16;4.93;;;3.03;;
18200;SDS011;9226;47.858;9.594;2022-07-05T02:51:22;6.23;;;3.50;;
18200;SDS011;9226;47.858;9.594;2022-07-05T02:56:28;8.77;;;3.30;;
18200;SDS011;9226;47.858;9.594;2022-07-05T03:01:34;4.77;;;3.10;;
18200;SDS011;9226;47.858;9.594;2022-07-05T03:06:48;6.67;;;3.30;;
18200;SDS011;9226;47.858;9.594;2022-07-05T03:17:08;6.57;;;3.47;;
18200;SDS011;9226;47.858;9.594;2022-07-05T03:22:13;5.93;;;3.20;;
18200;SDS011;9226;47.858;9.594;2022-07-05T03:27:28;5.87;;;3.50;;
18200;SDS011;9226;47.858;9.594;2022-07-05T03:32:33;4.93;;;3.30;;
18200;SDS011;9226;47.858;9.594;2022-07-05T03:37:40;5.87;;;3.63;;
18200;SDS011;9226;47.858;9.594;2022-07-05T03:42:54;9.80;;;3.37;;
18200;SDS011;9226;47.858;9.594;2022-07-05T03:48:00;7.50;;;3.63;;
18200;SDS011;9226;47.858;9.594;2022-07-05T03:53:06;7.28;;;3.87;;
18200;SDS011;9226;47.858;9.594;2022-07-05T03:58:11;8.37;;;4.43;;
18200;SDS011;9226;47.858;9.594;2022-07-05T04:03:26;6.13;;;4.37;;
18200;SDS011;9226;47.858;9.594;2022-07-05T04:08:32;54.93;;;4.67;;
18200;SDS011;9226;47.858;9.594;2022-07-05T04:13:46;7.60;;;3.00;;
18200;SDS011;9226;47.858;9.594;2022-07-05T04:18:55;5.08;;;3.20;;
18200;SDS011;9226;47.858;9.594;2022-07-05T04:24:09;11.70;;;3.00;;
18200;SDS011;9226;47.858;9.594;2022-07-05T04:29:15;7.83;;;3.30;;
18200;SDS011;9226;47.858;9.594;2022-07-05T04:34:29;5.57;;;3.23;;
18200;SDS011;9226;47.858;9.594;2022-07-05T04:44:47;6.87;;;4.20;;
18200;SDS011;9226;47.858;9.594;2022-07-05T04:50:02;6.93;;;3.80;;
18200;SDS011;9226;47.858;9.594;2022-07-05T04:55:10;9.67;;;4.60;;
18200;SDS011;9226;47.858;9.594;2022-07-05T05:00:24;7.03;;;4.53;;
18200;SDS011;9226;47.858;9.594;2022-07-05T05:10:42;6.77;;;4.80;;
18200;SDS011;9226;47.858;9.594;2022-07-05T05:21:01;7.07;;;3.60;;
18200;SDS011;9226;47.858;9.594;2022-07-05T05:31:19;5.70;;;3.80;;
18200;SDS011;9226;47.858;9.594;2022-07-05T05:36:24;8.67;;;4.50;;
18200;SDS011;9226;47.858;9.594;2022-07-05T05:41:39;7.93;;;4.53;;
18200;SDS011;9226;47.858;9.594;2022-07-05T05:51:57;9.13;;;4.60;;
18200;SDS011;9226;47.858;9.594;2022-07-05T05:57:02;7.23;;;4.57;;
18200;SDS011;9226;47.858;9.594;2022-07-05T06:02:07;7.50;;;5.13;;
18200;SDS011;9226;47.858;9.594;2022-07-05T06:07:21;7.60;;;4.53;;
18200;SDS011;9226;47.858;9.594;2022-07-05T06:12:26;6.53;;;4.27;;
18200;SDS011;9226;47.858;9.594;2022-07-05T06:17:35;7.03;;;4.10;;
18200;SDS011;9226;47.858;9.594;2022-07-05T06:22:42;6.67;;;3.83;;
18200;SDS011;9226;47.858;9.594;2022-07-05T06:27:57;6.47;;;4.13;;
18200;SDS011;9226;47.858;9.594;2022-07-05T06:38:16;5.07;;;3.17;;
18200;SDS011;9226;47.858;9.594;2022-07-05T06:48:33;5.37;;;3.40;;
18200;SDS011;9226;47.858;9.594;2022-07-05T06:53:39;6.07;;;3.30;;
18200;SDS011;9226;47.858;9.594;2022-07-05T06:58:44;5.67;;;3.77;;
18200;SDS011;9226;47.858;9.594;2022-07-05T07:03:50;7.15;;;4.22;;
18200;SDS011;9226;47.858;9.594;2022-07-05T07:09:04;8.90;;;4.23;;
18200;SDS011;9226;47.858;9.594;2022-07-05T07:14:22;8.33;;;4.50;;
18200;SDS011;9226;47.858;9.594;2022-07-05T07:19:27;6.93;;;4.50;;
18200;SDS011;9226;47.858;9.594;2022-07-05T07:24:42;6.30;;;4.30;;
18200;SDS011;9226;47.858;9.594;2022-07-05T07:34:59;6.60;;;4.23;;
18200;SDS011;9226;47.858;9.594;2022-07-05T07:45:18;6.57;;;4.23;;
18200;SDS011;9226;47.858;9.594;2022-07-05T07:50:23;7.53;;;3.80;;
18200;SDS011;9226;47.858;9.594;2022-07-05T07:55:37;5.73;;;2.77;;
18200;SDS011;9226;47.858;9.594;2022-07-05T08:00:42;6.30;;;3.50;;
18200;SDS011;9226;47.858;9.594;2022-07-05T08:05:56;9.47;;;3.17;;
18200;SDS011;9226;47.858;9.594;2022-07-05T08:11:01;3.80;;;3.00;;
18200;SDS011;9226;47.858;9.594;2022-07-05T08:16:07;4.97;;;3.73;;
18200;SDS011;9226;47.858;9.594;2022-07-05T08:21:21;14.27;;;3.90;;
18200;SDS011;9226;47.858;9.594;2022-07-05T08:26:35;8.37;;;3.90;;
18200;SDS011;9226;47.858;9.594;2022-07-05T08:31:43;10.47;;;5.00;;
18200;SDS011;9226;47.858;9.594;2022-07-05T08:36:49;4.03;;;3.40;;
18200;SDS011;9226;47.858;9.594;2022-07-05T08:41:55;5.08;;;4.03;;
18200;SDS011;9226;47.858;9.594;2022-07-05T08:47:11;6.87;;;3.30;;
18200;SDS011;9226;47.858;9.594;2022-07-05T08:52:18;4.80;;;3.30;;
18200;SDS011;9226;47.858;9.594;2022-07-05T08:57:23;7.20;;;4.10;;
18200;SDS011;9226;47.858;9.594;2022-07-05T09:02:44;5.67;;;3.60;;
18200;SDS011;9226;47.858;9.594;2022-07-05T09:07:52;4.47;;;3.52;;
18200;SDS011;9226;47.858;9.594;2022-07-05T09:13:00;4.25;;;3.27;;
18200;SDS011;9226;47.858;9.594;2022-07-05T09:18:05;4.92;;;2.80;;
18200;SDS011;9226;47.858;9.594;2022-07-05T09:23:10;6.80;;;3.30;;
18200;SDS011;9226;47.858;9.594;2022-07-05T09:28:24;5.17;;;3.03;;
18200;SDS011;9226;47.858;9.594;2022-07-05T09:33:30;4.90;;;3.10;;
18200;SDS011;9226;47.858;9.594;2022-07-05T09:38:36;4.30;;;3.17;;
18200;SDS011;9226;47.858;9.594;2022-07-05T09:43:41;5.70;;;3.03;;
18200;SDS011;9226;47.858;9.594;2022-07-05T09:54:09;3.60;;;3.00;;
18200;SDS011;9226;47.858;9.594;2022-07-05T09:59:15;5.37;;;3.23;;
18200;SDS011;9226;47.858;9.594;2022-07-05T10:04:29;3.20;;;2.50;;
18200;SDS011;9226;47.858;9.594;2022-07-05T10:09:43;3.43;;;2.23;;
18200;SDS011;9226;47.858;9.594;2022-07-05T10:14:58;4.10;;;2.60;;
18200;SDS011;9226;47.858;9.594;2022-07-05T10:20:05;3.43;;;2.30;;
18200;SDS011;9226;47.858;9.594;2022-07-05T10:25:16;2.90;;;1.93;;
18200;SDS011;9226;47.858;9.594;2022-07-05T10:30:30;5.03;;;2.20;;
18200;SDS011;9226;47.858;9.594;2022-07-05T10:35:36;3.50;;;2.53;;
18200;SDS011;9226;47.858;9.594;2022-07-05T10:45:56;5.30;;;2.10;;
18200;SDS011;9226;47.858;9.594;2022-07-05T10:51:13;2.10;;;1.90;;
18200;SDS011;9226;47.858;9.594;2022-07-05T10:56:26;2.80;;;2.50;;
18200;SDS011;9226;47.858;9.594;2022-07-05T11:01:36;2.60;;;2.40;;
18200;SDS011;9226;47.858;9.594;2022-07-05T11:06:43;2.27;;;2.07;;
18200;SDS011;9226;47.858;9.594;2022-07-05T11:12:07;5.03;;;2.13;;
18200;SDS011;9226;47.858;9.594;2022-07-05T11:17:25;2.40;;;2.20;;
18200;SDS011;9226;47.858;9.594;2022-07-05T11:22:37;7.95;;;2.35;;
18200;SDS011;9226;47.858;9.594;2022-07-05T11:28:01;2.57;;;2.30;;
18200;SDS011;9226;47.858;9.594;2022-07-05T11:33:26;3.73;;;2.53;;
18200;SDS011;9226;47.858;9.594;2022-07-05T11:38:34;5.87;;;2.30;;
18200;SDS011;9226;47.858;9.594;2022-07-05T11:48:54;4.73;;;2.40;;
18200;SDS011;9226;47.858;9.594;2022-07-05T11:54:00;2.80;;;2.40;;
18200;SDS011;9226;47.858;9.594;2022-07-05T11:59:18;2.73;;;2.17;;
18200;SDS011;9226;47.858;9.594;2022-07-05T12:04:33;4.10;;;2.33;;
18200;SDS011;9226;47.858;9.594;2022-07-05T12:09:47;2.90;;;2.10;;
18200;SDS011;9226;47.858;9.594;2022-07-05T12:15:04;3.93;;;2.50;;
18200;SDS011;9226;47.858;9.594;2022-07-05T12:20:11;2.53;;;2.27;;
18200;SDS011;9226;47.858;9.594;2022-07-05T12:25:27;4.00;;;2.20;;
18200;SDS011;9226;47.858;9.594;2022-07-05T12:35:47;5.20;;;2.30;;
18200;SDS011;9226;47.858;9.594;2022-07-05T12:40:59;2.55;;;2.00;;
18200;SDS011;9226;47.858;9.594;2022-07-05T12:46:14;3.67;;;2.00;;
18200;SDS011;9226;47.858;9.594;2022-07-05T12:51:31;2.47;;;2.20;;
18200;SDS011;9226;47.858;9.594;2022-07-05T12:56:37;5.60;;;2.60;;
18200;SDS011;9226;47.858;9.594;2022-07-05T13:02:00;4.53;;;2.17;;
18200;SDS011;9226;47.858;9.594;2022-07-05T13:07:06;3.50;;;2.17;;
18200;SDS011;9226;47.858;9.594;2022-07-05T13:12:12;3.03;;;2.23;;
18200;SDS011;9226;47.858;9.594;2022-07-05T13:17:22;2.30;;;2.07;;
18200;SDS011;9226;47.858;9.594;2022-07-05T13:22:27;4.28;;;2.10;;
18200;SDS011;9226;47.858;9.594;2022-07-05T13:27:41;2.60;;;2.00;;
18200;SDS011;9226;47.858;9.594;2022-07-05T13:32:55;2.97;;;2.20;;
18200;SDS011;9226;47.858;9.594;2022-07-05T13:43:16;4.83;;;2.13;;
18200;SDS011;9226;47.858;9.594;2022-07-05T13:53:34;3.70;;;2.30;;
18200;SDS011;9226;47.858;9.594;2022-07-05T13:58:40;2.77;;;2.10;;
18200;SDS011;9226;47.858;9.594;2022-07-05T14:03:54;4.57;;;2.00;;
18200;SDS011;9226;47.858;9.594;2022-07-05T14:09:01;4.00;;;2.10;;
18200;SDS011;9226;47.858;9.594;2022-07-05T14:14:15;2.50;;;1.90;;
18200;SDS011;9226;47.858;9.594;2022-07-05T14:19:20;5.23;;;1.80;;
18200;SDS011;9226;47.858;9.594;2022-07-05T14:24:34;5.67;;;1.90;;
18200;SDS011;9226;47.858;9.594;2022-07-05T14:29:39;4.37;;;1.90;;
18200;SDS011;9226;47.858;9.594;2022-07-05T14:34:53;1.90;;;1.80;;
18200;SDS011;9226;47.858;9.594;2022-07-05T14:39:58;3.77;;;2.20;;
18200;SDS011;9226;47.858;9.594;2022-07-05T14:50:16;5.40;;;2.43;;
18200;SDS011;9226;47.858;9.594;2022-07-05T14:55:21;4.40;;;2.47;;
18200;SDS011;9226;47.858;9.594;2022-07-05T15:00:35;4.13;;;2.07;;
18200;SDS011;9226;47.858;9.594;2022-07-05T15:10:53;3.83;;;2.33;;
18200;SDS011;9226;47.858;9.594;2022-07-05T15:16:07;3.23;;;2.20;;
18200;SDS011;9226;47.858;9.594;2022-07-05T15:21:14;2.57;;;2.30;;
18200;SDS011;9226;47.858;9.594;2022-07-05T15:26:28;2.13;;;1.93;;
18200;SDS011;9226;47.858;9.594;2022-07-05T15:31:34;3.22;;;2.15;;
18200;SDS011;9226;47.858;9.594;2022-07-05T15:36:40;4.10;;;2.50;;
18200;SDS011;9226;47.858;9.594;2022-07-05T15:46:58;2.87;;;2.07;;
18200;SDS011;9226;47.858;9.594;2022-07-05T15:57:18;2.30;;;2.10;;
18200;SDS011;9226;47.858;9.594;2022-07-05T16:02:25;2.10;;;1.90;;
18200;SDS011;9226;47.858;9.594;2022-07-05T16:07:30;3.00;;;2.20;;
18200;SDS011;9226;47.858;9.594;2022-07-05T16:12:35;3.23;;;2.00;;
18200;SDS011;9226;47.858;9.594;2022-07-05T16:17:40;7.03;;;2.67;;
18200;SDS011;9226;47.858;9.594;2022-07-05T16:22:54;2.30;;;2.00;;
18200;SDS011;9226;47.858;9.594;2022-07-05T16:28:00;4.53;;;1.95;;
18200;SDS011;9226;47.858;9.594;2022-07-05T16:33:14;4.37;;;2.20;;
18200;SDS011;9226;47.858;9.594;2022-07-05T16:38:19;4.20;;;2.10;;
18200;SDS011;9226;47.858;9.594;2022-07-05T16:43:24;3.60;;;2.20;;
18200;SDS011;9226;47.858;9.594;2022-07-05T16:48:29;3.52;;;1.87;;
18200;SDS011;9226;47.858;9.594;2022-07-05T16:53:44;2.73;;;1.97;;
18200;SDS011;9226;47.858;9.594;2022-07-05T16:59:00;2.67;;;2.20;;
18200;SDS011;9226;47.858;9.594;2022-07-05T17:04:05;4.10;;;1.80;;
18200;SDS011;9226;47.858;9.594;2022-07-05T17:09:19;4.53;;;2.10;;
18200;SDS011;9226;47.858;9.594;2022-07-05T17:19:37;5.20;;;2.03;;
18200;SDS011;9226;47.858;9.594;2022-07-05T17:29:55;2.53;;;2.00;;
18200;SDS011;9226;47.858;9.594;2022-07-05T17:35:09;3.77;;;2.30;;
18200;SDS011;9226;47.858;9.594;2022-07-05T17:40:14;5.77;;;2.37;;
18200;SDS011;9226;47.858;9.594;2022-07-05T17:45:20;2.57;;;1.97;;
18200;SDS011;9226;47.858;9.594;2022-07-05T17:50:25;2.90;;;1.83;;
18200;SDS011;9226;47.858;9.594;2022-07-05T17:55:39;6.43;;;2.20;;
18200;SDS011;9226;47.858;9.594;2022-07-05T18:00:44;2.73;;;2.10;;
18200;SDS011;9226;47.858;9.594;2022-07-05T18:05:58;3.03;;;2.00;;
18200;SDS011;9226;47.858;9.594;2022-07-05T18:11:04;2.73;;;1.90;;
18200;SDS011;9226;47.858;9.594;2022-07-05T18:16:18;4.77;;;2.27;;
18200;SDS011;9226;47.858;9.594;2022-07-05T18:21:24;3.85;;;2.30;;
18200;SDS011;9226;47.858;9.594;2022-07-05T18:26:38;5.67;;;2.10;;
18200;SDS011;9226;47.858;9.594;2022-07-05T18:31:43;5.53;;;2.17;;
18200;SDS011;9226;47.858;9.594;2022-07-05T18:36:50;2.83;;;2.08;;
18200;SDS011;9226;47.858;9.594;2022-07-05T18:42:05;7.57;;;2.10;;
18200;SDS011;9226;47.858;9.594;2022-07-05T18:47:10;2.77;;;2.10;;
18200;SDS011;9226;47.858;9.594;2022-07-05T18:52:24;3.37;;;2.10;;
18200;SDS011;9226;47.858;9.594;2022-07-05T18:57:30;2.95;;;2.15;;
18200;SDS011;9226;47.858;9.594;2022-07-05T19:02:35;3.72;;;2.15;;
18200;SDS011;9226;47.858;9.594;2022-07-05T19:07:49;4.37;;;2.80;;
18200;SDS011;9226;47.858;9.594;2022-07-05T19:13:11;5.50;;;2.20;;
18200;SDS011;9226;47.858;9.594;2022-07-05T19:18:34;2.58;;;2.00;;
18200;SDS011;9226;47.858;9.594;2022-07-05T19:28:52;2.67;;;2.00;;
18200;SDS011;9226;47.858;9.594;2022-07-05T19:34:06;2.60;;;2.10;;
18200;SDS011;9226;47.858;9.594;2022-07-05T19:39:11;3.17;;;1.80;;
18200;SDS011;9226;47.858;9.594;2022-07-05T19:44:26;2.23;;;1.70;;
18200;SDS011;9226;47.858;9.594;2022-07-05T19:49:31;2.42;;;1.60;;
18200;SDS011;9226;47.858;9.594;2022-07-05T19:59:57;2.03;;;1.60;;
18200;SDS011;9226;47.858;9.594;2022-07-05T20:10:15;1.70;;;1.50;;
18200;SDS011;9226;47.858;9.594;2022-07-05T20:15:20;2.13;;;1.30;;
18200;SDS011;9226;47.858;9.594;2022-07-05T20:20:26;1.60;;;1.50;;
18200;SDS011;9226;47.858;9.594;2022-07-05T20:25:40;2.53;;;1.90;;
18200;SDS011;9226;47.858;9.594;2022-07-05T20:36:01;2.20;;;1.60;;
18200;SDS011;9226;47.858;9.594;2022-07-05T20:41:07;2.70;;;1.70;;
18200;SDS011;9226;47.858;9.594;2022-07-05T20:46:23;2.53;;;1.80;;
18200;SDS011;9226;47.858;9.594;2022-07-05T20:51:30;2.47;;;1.60;;
18200;SDS011;9226;47.858;9.594;2022-07-05T21:01:48;3.60;;;1.90;;
18200;SDS011;9226;47.858;9.594;2022-07-05T21:06:53;6.40;;;2.00;;
18200;SDS011;9226;47.858;9.594;2022-07-05T21:12:08;4.07;;;1.87;;
18200;SDS011;9226;47.858;9.594;2022-07-05T21:17:23;2.20;;;1.77;;
18200;SDS011;9226;47.858;9.594;2022-07-05T21:27:41;3.10;;;2.20;;
18200;SDS011;9226;47.858;9.594;2022-07-05T21:38:00;2.40;;;2.20;;
18200;SDS011;9226;47.858;9.594;2022-07-05T21:43:06;4.45;;;2.27;;
18200;SDS011;9226;47.858;9.594;2022-07-05T21:48:11;2.40;;;2.10;;
18200;SDS011;9226;47.858;9.594;2022-07-05T21:53:25;3.00;;;2.13;;
18200;SDS011;9226;47.858;9.594;2022-07-05T21:58:39;4.63;;;2.10;;
18200;SDS011;9226;47.858;9.594;2022-07-05T22:03:53;2.83;;;1.90;;
18200;SDS011;9226;47.858;9.594;2022-07-05T22:09:07;4.10;;;2.37;;
18200;SDS011;9226;47.858;9.594;2022-07-05T22:14:13;3.23;;;2.20;;
18200;SDS011;9226;47.858;9.594;2022-07-05T22:24:31;3.27;;;2.20;;
18200;SDS011;9226;47.858;9.594;2022-07-05T22:34:49;9.53;;;2.43;;
18200;SDS011;9226;47.858;9.594;2022-07-05T22:39:55;3.97;;;2.40;;
18200;SDS011;9226;47.858;9.594;2022-07-05T22:45:01;2.92;;;2.10;;
18200;SDS011;9226;47.858;9.594;2022-07-05T22:50:18;3.50;;;2.00;;
18200;SDS011;9226;47.858;9.594;2022-07-05T22:55:24;3.07;;;2.40;;
18200;SDS011;9226;47.858;9.594;2022-07-05T23:00:29;3.60;;;2.20;;
18200;SDS011;9226;47.858;9.594;2022-07-05T23:05:35;6.42;;;1.95;;
18200;SDS011;9226;47.858;9.594;2022-07-05T23:10:49;4.90;;;2.37;;
18200;SDS011;9226;47.858;9.594;2022-07-05T23:15:55;6.03;;;2.30;;
18200;SDS011;9226;47.858;9.594;2022-07-05T23:21:01;4.60;;;2.27;;
18200;SDS011;9226;47.858;9.594;2022-07-05T23:26:15;2.80;;;2.23;;
18200;SDS011;9226;47.858;9.594;2022-07-05T23:36:33;3.10;;;2.10;;
18200;SDS011;9226;47.858;9.594;2022-07-05T23:41:39;2.90;;;2.10;;
18200;SDS011;9226;47.858;9.594;2022-07-05T23:46:54;2.67;;;2.20;;
18200;SDS011;9226;47.858;9.594;2022-07-05T23:57:12;3.47;;;2.50;;
